Time;durP1;ratioP1;P1;durP2;ratioP2;P2;SDS_P1;SDS_P2;PMS_P1;PMS_P2;Temp;Humidity;BMP_temperature;BMP_pressure;BME280_temperature;BME280_humidity;BME280_pressure;Samples;Min_cycle;Max_cycle;Signal;HPM_P1;HPM_P2
2022/12/10 00:01:27;;;;;;;34.28;15.30;;;-1.20;99.90;;;;;;5078473;28;20518;-39
2022/12/10 00:03:53;;;;;;;28.65;13.10;;;-1.30;99.90;;;;;;5078778;28;20061;-38
2022/12/10 00:06:22;;;;;;;28.50;12.60;;;-1.30;99.90;;;;;;5074837;28;20497;-39
2022/12/10 00:08:48;;;;;;;33.40;14.02;;;-1.30;99.90;;;;;;5072881;28;20109;-38
2022/12/10 00:11:16;;;;;;;27.65;12.93;;;-1.30;99.90;;;;;;5077930;28;20044;-39
2022/12/10 00:13:43;;;;;;;33.10;13.18;;;-1.30;99.90;;;;;;5077792;28;20050;-38
2022/12/10 00:16:11;;;;;;;33.08;14.88;;;-1.40;99.90;;;;;;5079290;28;20055;-39
2022/12/10 00:18:37;;;;;;;37.10;14.90;;;-1.40;99.90;;;;;;5076937;28;20504;-38
2022/12/10 00:21:05;;;;;;;34.47;15.60;;;-1.40;99.90;;;;;;5075618;28;20073;-39
2022/12/10 00:23:32;;;;;;;38.53;15.45;;;-1.40;99.90;;;;;;5078493;28;20126;-38
2022/12/10 00:26:05;;;;;;;29.55;13.18;;;-1.40;99.90;;;;;;5077636;28;20501;-39
2022/12/10 00:28:32;;;;;;;29.38;12.35;;;-1.40;99.90;;;;;;5072174;28;20101;-39
2022/12/10 00:31:05;;;;;;;38.42;14.57;;;-1.50;99.90;;;;;;5073464;28;20055;-39
2022/12/10 00:33:31;;;;;;;29.02;13.32;;;-1.50;99.90;;;;;;5073981;28;20054;-39
2022/12/10 00:36:05;;;;;;;28.98;13.00;;;-1.50;99.90;;;;;;5073415;28;21313;-39
2022/12/10 00:38:31;;;;;;;32.55;13.93;;;-1.50;99.90;;;;;;5079318;28;20133;-39
2022/12/10 00:40:57;;;;;;;31.70;14.70;;;-1.60;99.90;;;;;;5073497;28;20393;-39
2022/12/10 00:43:22;;;;;;;33.33;14.57;;;-1.60;99.90;;;;;;5074308;28;20046;-39
2022/12/10 00:45:48;;;;;;;29.50;12.65;;;-1.60;99.90;;;;;;5070877;28;20515;-38
2022/12/10 00:48:14;;;;;;;32.22;14.55;;;-1.60;99.90;;;;;;5075322;28;20117;-38
2022/12/10 00:50:39;;;;;;;31.05;12.75;;;-1.60;99.90;;;;;;5073383;28;20040;-39
2022/12/10 00:53:05;;;;;;;31.38;14.05;;;-1.60;99.90;;;;;;5078041;28;20056;-38
2022/12/10 00:55:31;;;;;;;35.78;13.60;;;-1.60;99.90;;;;;;5073810;28;20032;-39
2022/12/10 00:57:56;;;;;;;33.58;14.65;;;-1.60;99.90;;;;;;5072499;28;20485;-38
2022/12/10 01:00:23;;;;;;;34.60;14.70;;;-1.60;99.90;;;;;;5075323;28;20443;-39
2022/12/10 01:02:48;;;;;;;32.95;14.40;;;-1.60;99.90;;;;;;5079721;28;20044;-42
2022/12/10 01:05:14;;;;;;;34.55;14.75;;;-1.60;99.90;;;;;;5071433;28;20036;-38
2022/12/10 01:07:40;;;;;;;32.08;13.63;;;-1.60;99.90;;;;;;5077153;28;20037;-38
2022/12/10 01:10:05;;;;;;;40.53;15.07;;;-1.60;99.90;;;;;;5078854;28;20037;-39
2022/12/10 01:12:31;;;;;;;36.47;15.45;;;-1.60;99.90;;;;;;5071426;28;20035;-38
2022/12/10 01:14:57;;;;;;;30.73;12.52;;;-1.60;99.90;;;;;;5071483;28;20170;-38
2022/12/10 01:17:22;;;;;;;31.35;12.95;;;-1.60;99.90;;;;;;5072495;28;20594;-38
2022/12/10 01:19:48;;;;;;;31.10;13.25;;;-1.60;99.90;;;;;;5073623;28;20059;-38
2022/12/10 01:22:14;;;;;;;37.55;13.68;;;-1.60;99.90;;;;;;5069512;28;20166;-38
2022/12/10 01:24:40;;;;;;;34.72;12.95;;;-1.60;99.90;;;;;;5072705;28;20048;-40
2022/12/10 01:27:05;;;;;;;37.53;14.40;;;-1.50;99.90;;;;;;5072210;28;20119;-39
2022/12/10 01:29:31;;;;;;;40.72;14.90;;;-1.50;99.90;;;;;;5057829;28;20032;-39
2022/12/10 01:31:57;;;;;;;37.30;15.68;;;-1.40;99.90;;;;;;5074875;28;20607;-40
2022/12/10 01:34:24;;;;;;;35.38;14.40;;;-1.40;99.90;;;;;;5076255;28;20528;-38
2022/12/10 01:36:52;;;;;;;37.25;14.73;;;-1.40;99.90;;;;;;5073936;28;20114;-38
2022/12/10 01:39:20;;;;;;;30.08;13.27;;;-1.40;99.90;;;;;;5070284;28;20089;-39
2022/12/10 01:41:52;;;;;;;31.00;13.32;;;-1.40;99.90;;;;;;5078901;28;20049;-38
2022/12/10 01:44:17;;;;;;;32.22;13.63;;;-1.40;99.90;;;;;;5071920;28;20507;-40
2022/12/10 01:46:46;;;;;;;35.00;14.65;;;-1.40;99.90;;;;;;5073609;28;20044;-39
2022/12/10 01:49:18;;;;;;;31.00;13.10;;;-1.40;99.90;;;;;;5072438;28;20067;-39
2022/12/10 01:51:46;;;;;;;33.42;14.40;;;-1.40;99.90;;;;;;5074261;28;20489;-39
2022/12/10 01:54:34;;;;;;;34.17;14.10;;;-1.40;99.90;;;;;;5071701;28;20028;-38
2022/12/10 01:57:04;;;;;;;34.53;14.05;;;-1.50;99.90;;;;;;5068996;28;20047;-38
2022/12/10 01:59:30;;;;;;;33.20;13.88;;;-1.50;99.90;;;;;;5069757;28;20072;-38
2022/12/10 02:02:03;;;;;;;34.33;15.07;;;-1.50;99.90;;;;;;5081721;28;20055;-38
2022/12/10 02:04:28;;;;;;;;;;;-1.50;99.90;;;;;;5070265;28;20032;-38
2022/12/10 02:07:02;;;;;;;32.40;13.82;;;-1.50;99.90;;;;;;5072598;28;19962;-38
2022/12/10 02:10:01;;;;;;;45.00;15.45;;;-1.50;99.90;;;;;;5070513;28;20041;-38
2022/12/10 02:12:30;;;;;;;36.25;14.85;;;-1.50;99.90;;;;;;5075579;28;20091;-38
2022/12/10 02:15:12;;;;;;;34.03;14.95;;;-1.50;99.90;;;;;;5073099;28;20050;-38
2022/12/10 02:17:46;;;;;;;35.97;14.80;;;-1.50;99.90;;;;;;5080922;28;20046;-38
2022/12/10 02:20:33;;;;;;;42.03;15.38;;;-1.50;99.90;;;;;;5068817;28;20047;-38
2022/12/10 02:23:07;;;;;;;36.90;14.98;;;-1.50;99.90;;;;;;5070023;28;21863;-38
2022/12/10 02:25:58;;;;;;;35.45;14.63;;;-1.50;99.90;;;;;;5069106;28;20044;-38
2022/12/10 02:28:41;;;;;;;34.60;14.63;;;-1.60;99.90;;;;;;5070981;28;20586;-38
2022/12/10 02:31:10;;;;;;;38.13;15.38;;;-1.60;99.90;;;;;;5077094;28;20077;-38
2022/12/10 02:33:42;;;;;;;33.80;13.65;;;-1.60;99.90;;;;;;5068731;28;20116;-40
2022/12/10 02:36:10;;;;;;;37.25;14.07;;;-1.60;99.90;;;;;;5070659;28;20113;-38
2022/12/10 02:38:39;;;;;;;34.78;15.40;;;-1.60;99.90;;;;;;5067815;28;20078;-39
2022/12/10 02:41:19;;;;;;;40.45;14.90;;;-1.60;99.90;;;;;;5077890;28;20040;-38
2022/12/10 02:43:52;;;;;;;32.08;12.70;;;-1.70;99.90;;;;;;5072278;28;20509;-38
2022/12/10 02:46:18;;;;;;;32.72;13.52;;;-1.70;99.90;;;;;;5072598;28;20133;-38
2022/12/10 02:48:46;;;;;;;34.28;14.35;;;-1.70;99.90;;;;;;5068278;28;20043;-38
2022/12/10 02:51:12;;;;;;;33.65;14.18;;;-1.70;99.90;;;;;;5069017;28;20040;-38
2022/12/10 02:53:45;;;;;;;29.75;12.77;;;-1.70;99.90;;;;;;5075915;28;20051;-38
2022/12/10 02:56:24;;;;;;;37.30;15.63;;;-1.80;99.90;;;;;;5068963;28;20037;-38
2022/12/10 02:59:40;;;;;;;39.45;15.95;;;-1.80;99.90;;;;;;5085245;28;20050;-38
2022/12/10 03:02:42;;;;;;;37.63;16.00;;;-1.80;99.90;;;;;;5056106;28;20052;-38
2022/12/10 03:05:28;;;;;;;37.17;15.50;;;-1.80;99.90;;;;;;5072476;28;20032;-38
2022/12/10 03:08:07;;;;;;;37.15;13.82;;;-1.80;99.90;;;;;;5061453;28;20079;-38
2022/12/10 03:10:46;;;;;;;33.22;13.32;;;-1.90;99.90;;;;;;5078410;28;20489;-38
2022/12/10 03:13:16;;;;;;;38.92;15.48;;;-1.90;99.90;;;;;;5071010;28;20041;-38
2022/12/10 03:15:44;;;;;;;35.22;15.45;;;-2.00;99.90;;;;;;5071246;28;20028;-38
2022/12/10 03:18:11;;;;;;;37.22;14.75;;;-2.00;99.90;;;;;;5071927;28;20048;-38
2022/12/10 03:20:41;;;;;;;36.97;14.07;;;-2.00;99.90;;;;;;5066565;28;20040;-38
2022/12/10 03:23:11;;;;;;;37.33;14.73;;;-2.00;99.90;;;;;;5074391;28;20540;-38
2022/12/10 03:25:37;;;;;;;38.88;15.48;;;-2.00;99.90;;;;;;5076186;28;20523;-38
2022/12/10 03:28:04;;;;;;;34.70;13.70;;;-2.10;99.90;;;;;;5075908;28;20546;-39
2022/12/10 03:30:33;;;;;;;42.92;14.77;;;-2.10;99.90;;;;;;5074560;28;20040;-38
2022/12/10 03:33:00;;;;;;;36.85;15.13;;;-2.10;99.90;;;;;;5071481;28;20052;-38
2022/12/10 03:35:26;;;;;;;39.55;15.07;;;-2.10;99.90;;;;;;5081454;28;20402;-38
2022/12/10 03:37:52;;;;;;;39.65;15.13;;;-2.10;99.90;;;;;;5074766;28;20066;-38
2022/12/10 03:40:22;;;;;;;36.10;14.93;;;-2.10;99.90;;;;;;5077253;28;20517;-38
2022/12/10 03:42:47;;;;;;;37.28;14.65;;;-2.10;99.90;;;;;;5076611;28;20150;-38
2022/12/10 03:45:13;;;;;;;40.42;15.90;;;-2.10;99.90;;;;;;5078014;28;21680;-38
2022/12/10 03:47:40;;;;;;;35.55;15.00;;;-2.10;99.90;;;;;;5075185;28;20123;-38
2022/12/10 03:50:07;;;;;;;36.38;13.80;;;-2.20;99.90;;;;;;5076570;28;20058;-38
2022/12/10 03:52:32;;;;;;;31.85;13.85;;;-2.20;99.90;;;;;;5072996;28;20438;-38
2022/12/10 03:54:58;;;;;;;37.42;15.75;;;-2.20;99.90;;;;;;5078314;28;20119;-38
2022/12/10 03:57:24;;;;;;;38.90;15.10;;;-2.20;99.90;;;;;;5074434;28;20036;-38
2022/12/10 03:59:49;;;;;;;36.80;14.38;;;-2.20;99.90;;;;;;5075164;28;20036;-38
2022/12/10 04:02:15;;;;;;;41.22;16.52;;;-2.20;99.90;;;;;;5077245;28;20055;-38
2022/12/10 04:04:41;;;;;;;38.25;15.80;;;-2.20;99.90;;;;;;5083275;28;20472;-38
2022/12/10 04:07:06;;;;;;;40.67;15.50;;;-2.20;99.90;;;;;;5081393;28;20040;-38
2022/12/10 04:09:32;;;;;;;31.77;13.20;;;-2.20;99.90;;;;;;5076018;28;20110;-39
2022/12/10 04:11:58;;;;;;;33.40;14.15;;;-2.20;99.90;;;;;;5078000;28;20040;-38
2022/12/10 04:17:10;;;;;;;33.08;12.57;;;-2.20;99.90;;;;;;5077460;28;20048;-38
2022/12/10 04:19:36;;;;;;;27.73;13.27;;;-2.30;99.90;;;;;;5078755;28;20063;-38
2022/12/10 04:27:35;;;;;;;33.15;13.15;;;-2.30;99.90;;;;;;5071277;28;20454;-38
2022/12/10 04:30:01;;;;;;;39.85;15.07;;;-2.40;99.90;;;;;;5075943;28;20033;-38
2022/12/10 04:32:28;;;;;;;38.58;14.60;;;-2.40;99.90;;;;;;5070963;28;20114;-38
2022/12/10 04:34:54;;;;;;;35.38;14.07;;;-2.40;99.90;;;;;;5079938;28;20078;-38
2022/12/10 04:37:21;;;;;;;35.20;14.73;;;-2.30;99.90;;;;;;5081979;28;20048;-38
2022/12/10 04:39:48;;;;;;;35.75;15.43;;;-2.30;99.90;;;;;;5074400;28;20039;-38
2022/12/10 04:42:14;;;;;;;39.42;15.48;;;-2.30;99.90;;;;;;5074669;28;20063;-38
2022/12/10 04:44:40;;;;;;;38.22;14.32;;;-2.30;99.90;;;;;;5071237;28;20638;-38
2022/12/10 04:47:08;;;;;;;50.65;16.55;;;-2.30;99.90;;;;;;5074625;28;20535;-38
2022/12/10 04:49:34;;;;;;;72.45;18.83;;;-2.30;99.90;;;;;;5078208;28;20520;-38
2022/12/10 04:52:00;;;;;;;112.07;20.13;;;-2.20;99.90;;;;;;5072519;28;20044;-38
2022/12/10 04:54:26;;;;;;;141.32;23.15;;;-2.20;99.90;;;;;;5081299;28;20040;-38
2022/12/10 04:56:52;;;;;;;73.38;16.65;;;-2.20;99.90;;;;;;5072981;28;20044;-43
2022/12/10 04:59:18;;;;;;;89.13;19.92;;;-2.20;99.90;;;;;;5072214;28;20042;-38
2022/12/10 05:01:44;;;;;;;125.32;20.73;;;-2.10;99.90;;;;;;5074932;28;20044;-38
2022/12/10 05:04:13;;;;;;;167.65;25.75;;;-2.10;99.90;;;;;;5077109;28;20048;-38
2022/12/10 05:06:39;;;;;;;146.20;22.02;;;-2.10;99.90;;;;;;5074064;28;20098;-37
2022/12/10 05:09:05;;;;;;;194.32;27.42;;;-2.00;99.90;;;;;;5075468;28;20555;-38
2022/12/10 05:11:32;;;;;;;149.25;19.98;;;-2.00;99.90;;;;;;5084674;28;20039;-38
2022/12/10 05:13:59;;;;;;;187.70;23.05;;;-1.90;99.90;;;;;;5075738;28;20044;-38
2022/12/10 05:16:27;;;;;;;130.80;20.23;;;-1.90;99.90;;;;;;5075222;28;20032;-38
2022/12/10 05:18:54;;;;;;;156.98;21.00;;;-1.90;99.90;;;;;;5076898;28;20046;-38
2022/12/10 05:21:21;;;;;;;161.98;21.80;;;-1.90;99.90;;;;;;5074363;28;20094;-38
2022/12/10 05:23:50;;;;;;;256.83;27.83;;;-1.90;99.90;;;;;;5071566;28;20048;-38
2022/12/10 05:26:23;;;;;;;122.95;17.88;;;-1.90;99.90;;;;;;5073284;28;20055;-37
2022/12/10 05:28:52;;;;;;;101.65;17.52;;;-1.90;99.90;;;;;;5086704;28;20036;-38
2022/12/10 05:31:24;;;;;;;61.28;13.20;;;-1.90;99.90;;;;;;5070382;28;20114;-38
2022/12/10 05:33:50;;;;;;;116.85;16.25;;;-1.90;99.90;;;;;;5070756;28;20044;-38
2022/12/10 05:36:19;;;;;;;181.18;21.45;;;-1.90;99.90;;;;;;5072130;28;20155;-38
2022/12/10 05:38:45;;;;;;;186.18;23.83;;;-1.80;99.90;;;;;;5069955;28;20122;-38
2022/12/10 05:41:15;;;;;;;119.50;16.90;;;-1.80;99.90;;;;;;5070517;28;20074;-38
2022/12/10 05:43:43;;;;;;;162.90;18.92;;;-1.90;99.90;;;;;;5073467;28;20087;-37
2022/12/10 05:46:17;;;;;;;128.43;20.88;;;-1.90;99.90;;;;;;5079585;28;20051;-38
2022/12/10 05:48:43;;;;;;;133.70;18.25;;;-1.90;99.90;;;;;;5060025;28;20181;-37
2022/12/10 05:51:12;;;;;;;88.22;10.63;;;-1.90;99.90;;;;;;5067659;28;20078;-38
2022/12/10 05:53:38;;;;;;;162.73;21.77;;;-1.90;99.90;;;;;;5079658;28;20048;-36
2022/12/10 05:56:07;;;;;;;168.05;21.30;;;-1.90;99.90;;;;;;5073366;28;20081;-39
2022/12/10 05:58:34;;;;;;;81.15;15.20;;;-1.90;99.90;;;;;;5069307;28;20032;-36
2022/12/10 06:01:00;;;;;;;209.32;23.42;;;-1.90;99.90;;;;;;5076227;28;20105;-36
2022/12/10 06:03:27;;;;;;;136.18;18.52;;;-1.90;99.90;;;;;;5069200;28;20040;-36
2022/12/10 06:05:53;;;;;;;145.27;24.38;;;-1.80;99.90;;;;;;5076842;28;20051;-36
2022/12/10 06:08:19;;;;;;;103.72;17.63;;;-1.80;99.90;;;;;;5073035;28;20059;-36
2022/12/10 06:10:45;;;;;;;155.07;18.48;;;-1.90;99.90;;;;;;5079121;28;20036;-36
2022/12/10 06:13:11;;;;;;;72.68;11.15;;;-1.90;99.90;;;;;;5077998;28;20032;-36
2022/12/10 06:15:39;;;;;;;222.98;30.25;;;-1.90;99.90;;;;;;5068880;28;20032;-37
2022/12/10 06:18:05;;;;;;;115.20;19.63;;;-1.90;99.90;;;;;;5075241;28;20044;-36
2022/12/10 06:20:31;;;;;;;120.38;20.50;;;-1.90;99.90;;;;;;5070539;28;20032;-36
2022/12/10 06:22:57;;;;;;;113.90;17.60;;;-1.90;99.90;;;;;;5067658;28;20037;-39
2022/12/10 06:25:23;;;;;;;155.15;19.52;;;-1.90;99.90;;;;;;5070496;28;20401;-43
2022/12/10 06:27:49;;;;;;;135.63;19.08;;;-1.90;99.90;;;;;;5074610;28;20469;-43
2022/12/10 06:30:15;;;;;;;196.02;20.80;;;-1.90;99.90;;;;;;5072639;28;20400;-42
2022/12/10 06:32:42;;;;;;;163.60;22.90;;;-1.90;99.90;;;;;;5072947;28;20060;-39
2022/12/10 06:35:09;;;;;;;121.35;19.70;;;-1.90;99.90;;;;;;5076523;28;20036;-43
2022/12/10 06:37:35;;;;;;;157.85;21.45;;;-1.90;99.90;;;;;;5071112;28;20037;-38
2022/12/10 06:40:01;;;;;;;72.93;15.30;;;-1.90;99.90;;;;;;5074129;28;20043;-40
2022/12/10 06:42:27;;;;;;;115.22;17.35;;;-1.90;99.90;;;;;;5076184;28;20485;-40
2022/12/10 06:44:52;;;;;;;84.25;15.55;;;-1.90;99.90;;;;;;5070813;28;20043;-40
2022/12/10 06:47:18;;;;;;;157.82;20.90;;;-1.90;99.90;;;;;;5070187;28;20400;-42
2022/12/10 06:49:44;;;;;;;165.98;22.98;;;-1.90;99.90;;;;;;5076406;28;20032;-42
2022/12/10 06:52:09;;;;;;;184.70;21.92;;;-1.90;99.90;;;;;;5072839;28;20575;-42
2022/12/10 06:54:35;;;;;;;124.95;17.13;;;-1.90;99.90;;;;;;5070572;28;20402;-41
2022/12/10 06:57:01;;;;;;;131.75;21.17;;;-1.90;99.90;;;;;;5069508;28;20068;-39
2022/12/10 06:59:26;;;;;;;118.55;17.55;;;-1.90;99.90;;;;;;5070211;28;20037;-41
2022/12/10 07:01:52;;;;;;;101.00;18.83;;;-1.90;99.90;;;;;;5069181;28;20036;-39
2022/12/10 07:04:18;;;;;;;79.15;15.48;;;-1.90;99.90;;;;;;5074360;28;20032;-39
2022/12/10 07:06:43;;;;;;;110.03;17.55;;;-1.90;99.90;;;;;;5071409;28;20041;-41
2022/12/10 07:09:09;;;;;;;111.95;18.67;;;-1.90;99.90;;;;;;5079194;28;20066;-41
2022/12/10 07:11:36;;;;;;;132.32;20.75;;;-1.90;99.90;;;;;;5069998;28;20050;-40
2022/12/10 07:14:02;;;;;;;165.13;22.30;;;-1.90;99.90;;;;;;5071132;28;20036;-42
2022/12/10 07:16:30;;;;;;;217.73;26.20;;;-1.90;99.90;;;;;;5071970;28;20606;-40
2022/12/10 07:18:57;;;;;;;107.63;16.77;;;-1.90;99.90;;;;;;5070087;28;20036;-41
2022/12/10 07:21:34;;;;;;;193.82;21.88;;;-1.90;99.90;;;;;;5071833;28;20561;-43
2022/12/10 07:24:03;;;;;;;102.95;15.43;;;-1.90;99.90;;;;;;5070689;28;20554;-40
2022/12/10 07:26:32;;;;;;;71.38;16.85;;;-1.90;99.90;;;;;;5070433;28;20049;-40
2022/12/10 07:29:02;;;;;;;105.57;18.63;;;-1.80;99.90;;;;;;5068202;28;20045;-37
2022/12/10 07:31:28;;;;;;;93.95;17.60;;;-1.80;99.90;;;;;;5073934;28;20201;-41
2022/12/10 07:33:56;;;;;;;112.97;18.55;;;-1.80;99.90;;;;;;5071920;28;20560;-42
2022/12/10 07:36:23;;;;;;;111.20;19.65;;;-1.80;99.90;;;;;;5069873;28;20060;-39
2022/12/10 07:38:51;;;;;;;93.47;17.80;;;-1.80;99.90;;;;;;5071420;28;20484;-38
2022/12/10 07:41:16;;;;;;;103.40;18.23;;;-1.80;99.90;;;;;;5076629;28;20071;-43
2022/12/10 07:43:44;;;;;;;71.63;15.93;;;-1.80;99.90;;;;;;5070510;28;20119;-40
2022/12/10 07:46:13;;;;;;;97.25;17.20;;;-1.80;99.90;;;;;;5069084;28;20075;-39
2022/12/10 07:48:41;;;;;;;93.63;17.02;;;-1.80;99.90;;;;;;5074419;28;20485;-41
2022/12/10 07:51:07;;;;;;;98.95;15.90;;;-1.80;99.90;;;;;;5067349;28;20040;-40
2022/12/10 07:53:34;;;;;;;85.57;17.15;;;-1.80;99.90;;;;;;5072911;28;20516;-43
2022/12/10 07:56:00;;;;;;;161.43;23.17;;;-1.80;99.90;;;;;;5070668;28;20029;-41
2022/12/10 07:58:25;;;;;;;78.10;16.73;;;-1.80;99.90;;;;;;5066939;28;20090;-39
2022/12/10 08:00:51;;;;;;;107.13;16.33;;;-1.80;99.90;;;;;;5073054;28;20485;-42
2022/12/10 08:03:17;;;;;;;94.72;17.33;;;-1.80;99.90;;;;;;5072090;28;20118;-40
2022/12/10 08:05:42;;;;;;;52.42;14.02;;;-1.80;99.90;;;;;;5070669;28;20048;-41
2022/12/10 08:08:08;;;;;;;85.90;17.13;;;-1.70;99.90;;;;;;5070058;28;20547;-41
2022/12/10 08:10:35;;;;;;;94.95;14.75;;;-1.70;99.90;;;;;;5076724;28;20124;-43
2022/12/10 08:13:01;;;;;;;62.78;14.10;;;-1.70;99.90;;;;;;5074838;28;20072;-43
2022/12/10 08:15:28;;;;;;;52.92;14.07;;;-1.70;99.90;;;;;;5076928;28;20045;-40
2022/12/10 08:17:54;;;;;;;94.15;17.67;;;-1.70;99.90;;;;;;5074936;28;20551;-40
2022/12/10 08:20:20;;;;;;;81.13;16.52;;;-1.60;99.90;;;;;;5078659;28;20040;-41
2022/12/10 08:22:46;;;;;;;39.38;13.18;;;-1.60;99.90;;;;;;5071309;28;20072;-43
2022/12/10 08:25:11;;;;;;;89.43;17.83;;;-1.60;99.90;;;;;;5071846;28;20076;-42
2022/12/10 08:27:37;;;;;;;64.82;13.70;;;-1.60;99.90;;;;;;5072924;28;20485;-44
2022/12/10 08:30:03;;;;;;;69.93;14.50;;;-1.60;99.90;;;;;;5075206;28;20363;-42
2022/12/10 08:32:29;;;;;;;68.43;14.70;;;-1.60;99.90;;;;;;5081487;28;20055;-41
2022/12/10 08:34:55;;;;;;;57.70;14.20;;;-1.60;99.90;;;;;;5072751;28;20032;-42
2022/12/10 08:37:21;;;;;;;57.08;15.35;;;-1.60;99.90;;;;;;5076846;28;20459;-41
2022/12/10 08:39:46;;;;;;;60.67;15.88;;;-1.60;99.90;;;;;;5072625;28;20043;-43
2022/12/10 08:42:12;;;;;;;57.10;14.02;;;-1.60;99.90;;;;;;5074230;28;20463;-43
2022/12/10 08:44:38;;;;;;;57.60;13.98;;;-1.60;99.90;;;;;;5077282;28;20044;-42
2022/12/10 08:47:03;;;;;;;100.40;19.58;;;-1.60;99.90;;;;;;5081485;28;20496;-41
2022/12/10 08:49:29;;;;;;;74.72;18.23;;;-1.60;99.90;;;;;;5076066;28;20028;-42
2022/12/10 08:51:55;;;;;;;68.03;16.00;;;-1.60;99.90;;;;;;5072791;28;20542;-42
2022/12/10 08:54:20;;;;;;;87.65;17.60;;;-1.50;99.90;;;;;;5078893;28;20036;-42
2022/12/10 08:56:46;;;;;;;77.95;16.23;;;-1.50;99.90;;;;;;5080547;28;20036;-42
2022/12/10 08:59:12;;;;;;;48.63;14.93;;;-1.50;99.90;;;;;;5070904;28;20048;-40
2022/12/10 09:01:38;;;;;;;78.20;18.00;;;-1.50;99.90;;;;;;5072527;28;20347;-41
2022/12/10 09:04:04;;;;;;;75.38;17.88;;;-1.50;99.90;;;;;;5065256;28;20052;-44
2022/12/10 09:06:30;;;;;;;73.55;17.02;;;-1.50;99.90;;;;;;5065624;28;20040;-44
2022/12/10 09:08:56;;;;;;;61.22;15.02;;;-1.50;99.90;;;;;;5089549;28;20068;-42
2022/12/10 09:11:27;;;;;;;39.97;12.50;;;-1.50;99.90;;;;;;5075974;28;20133;-43
2022/12/10 09:13:53;;;;;;;31.27;10.95;;;-1.50;99.90;;;;;;5074289;28;20434;-42
2022/12/10 09:16:19;;;;;;;60.17;16.25;;;-1.50;99.90;;;;;;5080596;28;20082;-42
2022/12/10 09:18:45;;;;;;;61.28;14.70;;;-1.40;99.90;;;;;;5077823;28;20044;-42
2022/12/10 09:21:16;;;;;;;57.47;14.18;;;-1.50;99.90;;;;;;5079123;28;20072;-40
2022/12/10 09:23:42;;;;;;;42.45;12.95;;;-1.40;99.90;;;;;;5076105;28;20040;-43
2022/12/10 09:26:10;;;;;;;40.78;12.55;;;-1.50;99.90;;;;;;5079239;28;20040;-43
2022/12/10 09:28:37;;;;;;;41.42;13.20;;;-1.40;99.90;;;;;;5072295;28;20044;-42
2022/12/10 09:31:05;;;;;;;52.35;14.32;;;-1.40;99.90;;;;;;5072576;28;20080;-43
2022/12/10 09:33:32;;;;;;;69.97;17.25;;;-1.40;99.90;;;;;;5074337;28;20062;-40
2022/12/10 09:35:57;;;;;;;50.45;15.32;;;-1.40;99.90;;;;;;5075181;28;20469;-42
2022/12/10 09:38:23;;;;;;;41.70;14.10;;;-1.40;99.90;;;;;;5065056;28;20042;-41
2022/12/10 09:41:04;;;;;;;47.67;14.43;;;-1.40;99.90;;;;;;5074461;28;20041;-40
2022/12/10 09:43:46;;;;;;;44.97;14.70;;;-1.40;99.90;;;;;;5081071;28;20068;-40
2022/12/10 09:46:31;;;;;;;38.38;12.63;;;-1.30;99.90;;;;;;5073873;28;20098;-42
2022/12/10 09:49:31;;;;;;;41.97;13.95;;;-1.30;99.90;;;;;;5069699;28;20565;-42
2022/12/10 09:52:00;;;;;;;42.40;14.07;;;-1.30;99.90;;;;;;5067955;28;20048;-38
2022/12/10 09:54:33;;;;;;;43.20;14.50;;;-1.30;99.90;;;;;;5071518;28;20127;-39
2022/12/10 09:57:00;;;;;;;39.75;13.48;;;-1.30;99.90;;;;;;5069190;28;20151;-39
2022/12/10 09:59:25;;;;;;;53.08;15.50;;;-1.20;99.90;;;;;;5075617;28;20477;-37
2022/12/10 10:02:19;;;;;;;43.63;13.80;;;-1.20;99.90;;;;;;5066259;28;20043;-41
2022/12/10 10:04:45;;;;;;;45.85;14.13;;;-1.20;99.90;;;;;;5070706;28;20047;-38
2022/12/10 10:07:28;;;;;;;44.53;15.23;;;-1.20;99.90;;;;;;5066982;28;20032;-38
2022/12/10 10:09:59;;;;;;;46.55;14.65;;;-1.20;99.90;;;;;;5072879;28;20033;-38
2022/12/10 10:12:29;;;;;;;42.90;14.23;;;-1.10;99.90;;;;;;5067166;28;20044;-38
2022/12/10 10:14:54;;;;;;;41.45;13.73;;;-1.10;99.90;;;;;;5070470;28;20501;-38
2022/12/10 10:17:31;;;;;;;46.10;15.02;;;-1.00;99.90;;;;;;5069506;28;20043;-39
2022/12/10 10:19:57;;;;;;;37.88;12.70;;;-1.00;99.90;;;;;;5069462;28;20094;-40
2022/12/10 10:22:23;;;;;;;44.90;14.75;;;-1.00;99.90;;;;;;5073290;28;20024;-38
2022/12/10 10:24:48;;;;;;;38.22;13.45;;;-1.00;99.90;;;;;;5074544;28;20662;-38
2022/12/10 10:27:20;;;;;;;34.20;12.13;;;-1.00;99.90;;;;;;5071584;28;20043;-39
2022/12/10 10:29:50;;;;;;;44.00;15.27;;;-1.00;99.90;;;;;;5068896;28;20036;-38
2022/12/10 10:32:23;;;;;;;37.55;13.25;;;-1.00;99.90;;;;;;5073765;28;20145;-39
2022/12/10 10:34:57;;;;;;;37.42;14.02;;;-1.00;99.90;;;;;;5076980;28;20150;-39
2022/12/10 10:37:29;;;;;;;43.20;14.95;;;-1.00;99.90;;;;;;5069877;28;20089;-39
2022/12/10 10:39:56;;;;;;;42.53;16.10;;;-0.90;99.90;;;;;;5073899;28;20040;-38
2022/12/10 10:42:35;;;;;;;37.10;14.27;;;-0.90;99.90;;;;;;5070159;28;20058;-39
2022/12/10 10:45:03;;;;;;;40.22;14.27;;;-0.90;99.90;;;;;;5075927;28;20043;-40
2022/12/10 10:47:34;;;;;;;40.55;14.00;;;-0.80;99.90;;;;;;5067873;28;20547;-38
2022/12/10 10:50:01;;;;;;;35.13;13.65;;;-0.80;99.90;;;;;;5071098;28;20104;-38
2022/12/10 10:52:30;;;;;;;36.70;14.27;;;-0.80;99.90;;;;;;5070067;28;20122;-41
2022/12/10 10:54:55;;;;;;;43.50;15.60;;;-0.80;99.90;;;;;;5063847;28;20043;-39
2022/12/10 10:57:34;;;;;;;46.75;15.65;;;-0.80;99.90;;;;;;5076381;28;20409;-40
2022/12/10 11:00:19;;;;;;;36.33;14.07;;;-0.80;99.90;;;;;;5068235;28;20074;-38
2022/12/10 11:02:45;;;;;;;36.13;12.32;;;-0.70;99.90;;;;;;5070263;28;20565;-39
2022/12/10 11:05:32;;;;;;;37.78;13.68;;;-0.70;99.90;;;;;;5081075;28;20036;-38
2022/12/10 11:08:04;;;;;;;36.70;13.73;;;-0.70;99.90;;;;;;5074470;28;20043;-40
2022/12/10 11:10:30;;;;;;;37.83;13.55;;;-0.60;99.90;;;;;;5074694;28;20036;-38
2022/12/10 11:13:06;;;;;;;35.47;13.93;;;-0.60;99.90;;;;;;5074260;28;20044;-39
2022/12/10 11:15:40;;;;;;;34.33;13.30;;;-0.60;99.90;;;;;;5070254;28;20040;-38
2022/12/10 11:18:26;;;;;;;40.38;14.32;;;-0.60;99.90;;;;;;5068950;28;20052;-38
2022/12/10 11:21:01;;;;;;;36.50;13.30;;;-0.60;99.90;;;;;;5073544;28;20493;-39
2022/12/10 11:23:41;;;;;;;32.50;12.73;;;-0.60;99.90;;;;;;5068485;28;20044;-38
2022/12/10 11:26:11;;;;;;;42.38;14.85;;;-0.50;99.90;;;;;;5076445;28;20089;-40
2022/12/10 11:28:59;;;;;;;41.30;14.02;;;-0.50;99.90;;;;;;5069197;28;20067;-41
2022/12/10 11:31:52;;;;;;;45.25;16.10;;;-0.50;99.90;;;;;;5071348;28;20491;-36
2022/12/10 11:34:29;;;;;;;42.33;14.60;;;-0.50;99.90;;;;;;5074516;28;20066;-36
2022/12/10 11:37:32;;;;;;;36.15;13.30;;;-0.50;99.90;;;;;;5073865;28;20047;-36
2022/12/10 11:40:26;;;;;;;42.33;12.57;;;-0.40;99.90;;;;;;5076488;28;20041;-36
2022/12/10 11:43:09;;;;;;;39.50;14.93;;;-0.40;99.90;;;;;;5074959;28;20037;-36
2022/12/10 11:45:45;;;;;;;38.72;14.60;;;-0.40;99.90;;;;;;5081618;28;20493;-37
2022/12/10 11:48:25;;;;;;;43.22;16.02;;;-0.40;99.90;;;;;;5070689;28;20070;-37
2022/12/10 11:51:05;;;;;;;46.05;15.38;;;-0.40;99.90;;;;;;5070690;28;20040;-37
2022/12/10 11:53:36;;;;;;;43.55;15.38;;;-0.30;99.90;;;;;;5072730;28;20041;-37
2022/12/10 11:56:23;;;;;;;38.47;14.98;;;-0.30;99.90;;;;;;5073014;28;20032;-37
2022/12/10 11:59:20;;;;;;;44.97;14.95;;;-0.30;99.90;;;;;;5074880;28;20495;-37
2022/12/10 12:02:20;;;;;;;44.13;14.70;;;-0.30;99.90;;;;;;5072702;28;20173;-37
2022/12/10 12:04:54;;;;;;;42.40;14.30;;;-0.30;99.90;;;;;;5074926;28;20080;-37
2022/12/10 12:07:48;;;;;;;44.40;14.82;;;-0.30;99.90;;;;;;5082464;28;20049;-36
2022/12/10 12:10:42;;;;;;;39.95;13.60;;;-0.30;99.90;;;;;;5084473;28;20032;-36
2022/12/10 12:13:16;;;;;;;41.42;13.70;;;-0.30;99.90;;;;;;5078105;28;20096;-37
2022/12/10 12:15:44;;;;;;;42.38;14.25;;;-0.20;99.90;;;;;;5072412;28;20051;-36
2022/12/10 12:18:33;;;;;;;44.78;16.02;;;-0.20;99.90;;;;;;5073190;28;20036;-37
2022/12/10 12:21:04;;;;;;;44.05;14.55;;;-0.20;99.90;;;;;;5079928;28;20081;-37
2022/12/10 12:23:42;;;;;;;37.97;14.20;;;-0.20;99.90;;;;;;5074917;28;20039;-36
2022/12/10 12:26:31;;;;;;;47.92;16.67;;;-0.20;99.90;;;;;;5073898;28;20759;-36
2022/12/10 12:29:06;;;;;;;43.25;14.90;;;-0.20;99.90;;;;;;5066213;28;20098;-36
2022/12/10 12:31:37;;;;;;;48.78;14.70;;;-0.10;99.90;;;;;;5075296;28;20057;-36
2022/12/10 12:34:45;;;;;;;46.50;15.85;;;-0.10;99.90;;;;;;5073797;28;20720;-37
2022/12/10 12:37:15;;;;;;;40.45;14.25;;;-0.10;99.90;;;;;;5031616;28;20921;-36
2022/12/10 12:39:52;;;;;;;40.40;15.95;;;-0.10;99.90;;;;;;5072807;28;20493;-37
2022/12/10 12:42:30;;;;;;;40.22;14.48;;;-0.10;99.90;;;;;;5073023;28;20035;-36
2022/12/10 12:45:02;;;;;;;42.70;14.57;;;-0.10;99.90;;;;;;5071189;28;20130;-37
2022/12/10 12:47:40;;;;;;;49.57;15.80;;;-0.10;99.90;;;;;;5079554;28;20063;-36
2022/12/10 12:50:26;;;;;;;42.72;14.02;;;-0.10;99.90;;;;;;5068133;28;20040;-36